Andesborg — PCLC — position and weather

sailwx.info

Track history (hours):
 
Tides and Currents Weather Stations Pressure Air Temp Water Temp Dewpoint Dewpoint Depression Visibility Wind Speed Wind Dir Waves Ship Positions

Andesborg

Last reported at 2016-Dec-29 11:31 UTC. Time now 2017-Jan-21 02:04 UTC.
Position N 43°22' W 001°57'.
Warning: this ship's position is 22 days out of date.

Length 142 m; draft 6.3 m.

Type: Cargo ship. MMSI: 246797000.

Date/timePositionNaut miles runAvg speedWind from/ knotsBaromVisibWave heightAir tempDewpointWater temp
2016-Dec-29 11:31N 43°22' W 001°57'2 1.7
2016-Dec-29 10:33N 43°23' W 001°58'41 9.6
2016-Dec-29 06:19N 43°59' W 002°24'1310.4
2016-Dec-29 05:06N 44°10' W 002°32'610.2
2016-Dec-29 04:32N 44°15' W 002°36'1010.4
2016-Dec-29 03:32N 44°24' W 002°42'1210.4
2016-Dec-29 02:20N 44°35' W 002°50'36 6.9
2016-Dec-28 21:09N 45°01' W 003°26'610.5
2016-Dec-28 20:33N 45°07' W 003°24'1110.0
2016-Dec-28 19:29N 45°17' W 003°22'1010.8
2016-Dec-28 18:33N 45°26' W 003°28'1110.6
2016-Dec-28 17:33N 45°36' W 003°35'4 3.6
2016-Dec-28 16:33N 45°39' W 003°37'1111.1
2016-Dec-28 15:33N 45°49' W 003°45'1111.6
2016-Dec-28 14:33N 45°59' W 003°53'1211.9
2016-Dec-28 13:33N 46°10' W 004°01'1211.9
2016-Dec-28 12:33N 46°20' W 004°09'1211.5
2016-Dec-28 11:33N 46°30' W 004°17'1111.2
2016-Dec-28 10:33N 46°40' W 004°25'1111.2
2016-Dec-28 09:33N 46°50' W 004°32'1111.2
2016-Dec-28 08:33N 46°60' W 004°40'1211.6
2016-Dec-28 07:33N 47°10' W 004°48'1212.0
2016-Dec-28 06:33N 47°21' W 004°56'1512.4
2016-Dec-28 05:20N 47°34' W 005°06'1012.4
2016-Dec-28 04:33N 47°43' W 005°13'3511.5
2016-Dec-28 01:29N 48°14' W 005°37'2211.1
2016-Dec-27 23:32N 48°33' W 005°53'1410.8
2016-Dec-27 22:14N 48°47' W 005°51'912.8
2016-Dec-27 21:33N 48°55' W 005°43'1813.7
2016-Dec-27 20:14N 49°04' W 005°20'913.7
2016-Dec-27 19:33N 49°08' W 005°07'1413.3
2016-Dec-27 18:32N 49°15' W 004°49'1412.6
2016-Dec-27 17:25N 49°21' W 004°30'1411.9
2016-Dec-27 16:16N 49°29' W 004°12'911.8
2016-Dec-27 15:32N 49°34' W 004°01'2512.5
2016-Dec-27 13:31N 49°47' W 003°29'1414.0
2016-Dec-27 12:29N 49°55' W 003°09'1414.7
2016-Dec-27 11:33N 50°01' W 002°51'8912.3
2016-Dec-27 04:20N 50°24' W 000°37'1113.7
2016-Dec-27 03:33N 50°27' W 000°21'1414.1
2016-Dec-27 02:33N 50°31' E 000°01'1514.4
2016-Dec-27 01:33N 50°35' E 000°23'2913.6
2016-Dec-26 23:25N 50°50' E 001°02'1112.3
2016-Dec-26 22:33N 50°56' E 001°15'1212.1
2016-Dec-26 21:33N 51°04' E 001°29'1313.0
2016-Dec-26 20:34N 51°13' E 001°45'1414.2
2016-Dec-26 19:33N 51°25' E 001°56'1414.2
2016-Dec-26 18:33N 51°36' E 002°11'1413.5
2016-Dec-26 17:33N 51°46' E 002°25'45610.3
2016-Dec-24 21:11N 57°49' E 010°26'610.2
2016-Dec-24 20:33N 57°48' E 010°38'8 8.0
2016-Dec-24 19:34N 57°41' E 010°42'3 3.3
2016-Dec-24 18:33N 57°41' E 010°36'0 0.0
2016-Dec-24 17:27N 57°41' E 010°36'0 0.0
2016-Dec-24 16:27N 57°41' E 010°36'0 0.1
2016-Dec-24 15:33N 57°41' E 010°36'0 0.0
2016-Dec-24 14:33N 57°41' E 010°36'0 0.0
2016-Dec-24 13:33N 57°41' E 010°36'0 0.0
2016-Dec-24 12:30N 57°41' E 010°36'0 0.0
2016-Dec-24 11:30N 57°41' E 010°36'0 0.0
2016-Dec-24 10:33N 57°41' E 010°36'7 7.3
2016-Dec-24 09:34N 57°40' E 010°49'1312.5
2016-Dec-24 08:33N 57°36' E 011°12'1313.4
2016-Dec-24 07:34N 57°26' E 011°28'1413.6
2016-Dec-24 06:33N 57°13' E 011°37'6513.0
2016-Dec-24 01:33N 56°13' E 012°19'1414.3
2016-Dec-24 00:33N 56°04' E 012°39'1514.8
2016-Dec-23 23:33N 55°49' E 012°43'1413.5
2016-Dec-23 22:33N 55°36' E 012°42'1313.1
2016-Dec-23 21:33N 55°23' E 012°41'1212.3
2016-Dec-23 20:33N 55°14' E 012°56'105 3.4
2016-Dec-22 13:33N 53°43' E 014°28'1110.4
2016-Dec-22 12:33N 53°34' E 014°36'8 7.9
2016-Dec-22 11:33N 53°26' E 014°36'2 1.5
2016-Dec-22 10:16N 53°24' E 014°36'0 0.0
2016-Dec-22 09:31N 53°24' E 014°36'0 0.0
2016-Dec-22 08:31N 53°24' E 014°36'0 0.0
2016-Dec-22 07:33N 53°24' E 014°36'0 0.0
2016-Dec-22 06:27N 53°24' E 014°36'0 0.0
2016-Dec-22 05:30N 53°24' E 014°36'0 0.0
2016-Dec-22 04:33N 53°24' E 014°36'0 0.0
2016-Dec-22 03:33N 53°24' E 014°36'0 0.0
2016-Dec-22 02:31N 53°24' E 014°36'0 0.0
2016-Dec-22 01:33N 53°24' E 014°36'0 0.0
2016-Dec-22 00:33N 53°24' E 014°36'0 0.0
2016-Dec-21 23:30N 53°24' E 014°36'0 0.0
2016-Dec-21 22:33N 53°24' E 014°36'0 0.0
2016-Dec-21 21:33N 53°24' E 014°36'0 0.0
2016-Dec-21 20:33N 53°24' E 014°36'0 0.0
2016-Dec-21 19:33N 53°24' E 014°36'0 0.0
2016-Dec-21 18:30N 53°24' E 014°36'0 0.0
2016-Dec-21 17:30N 53°24' E 014°36'0 0.0
2016-Dec-21 16:31N 53°24' E 014°36'0 0.0
2016-Dec-21 15:31N 53°24' E 014°36'0 0.0
2016-Dec-21 14:31N 53°24' E 014°36'0 0.0
2016-Dec-21 13:28N 53°24' E 014°36'0 0.0
2016-Dec-21 12:33N 53°24' E 014°36'0 0.0
2016-Dec-21 11:32N 53°24' E 014°36'0 0.0
2016-Dec-21 10:32N 53°24' E 014°36'0 0.0
2016-Dec-21 09:30N 53°24' E 014°36'0 0.0
2016-Dec-21 08:23N 53°24' E 014°36'0 0.0
2016-Dec-21 07:31N 53°24' E 014°36'0 0.0
2016-Dec-21 06:33N 53°24' E 014°36'0 0.0
2016-Dec-21 05:34N 53°24' E 014°36'0 0.0
2016-Dec-21 04:31N 53°24' E 014°36'0 0.0
2016-Dec-21 03:33N 53°24' E 014°36'0 0.0
2016-Dec-21 02:31N 53°24' E 014°36'0 0.0
2016-Dec-21 01:30N 53°24' E 014°36'0 0.0
2016-Dec-21 00:31N 53°24' E 014°36'0 0.0
2016-Dec-20 23:33N 53°24' E 014°36'0 0.0
2016-Dec-20 22:32N 53°24' E 014°36'0 0.0
2016-Dec-20 21:32N 53°24' E 014°36'0 0.0
2016-Dec-20 19:26N 53°24' E 014°36'0 0.0
2016-Dec-20 18:11N 53°24' E 014°36'0 0.0
2016-Dec-20 17:27N 53°24' E 014°36'0 0.0
2016-Dec-20 16:33N 53°24' E 014°36'0 0.0
2016-Dec-20 15:19N 53°24' E 014°36'0 0.0
2016-Dec-20 14:31N 53°24' E 014°36'0 0.0
2016-Dec-20 13:31N 53°24' E 014°36'0 0.0
2016-Dec-20 12:31N 53°24' E 014°36'0 0.0
2016-Dec-20 11:25N 53°24' E 014°36'0 0.0
2016-Dec-20 10:31N 53°24' E 014°36'0 0.0
2016-Dec-20 08:30N 53°24' E 014°36'0 0.0
2016-Dec-20 07:33N 53°24' E 014°36'0 0.0
2016-Dec-20 06:30N 53°24' E 014°36'0 0.0
2016-Dec-20 05:29N 53°24' E 014°36'0 0.0
2016-Dec-20 04:16N 53°24' E 014°36'0 0.0
2016-Dec-20 03:33N 53°24' E 014°36'0 0.0
2016-Dec-20 00:05N 53°24' E 014°36'0 0.0
2016-Dec-19 23:33N 53°24' E 014°36'0 0.0
2016-Dec-19 20:27N 53°24' E 014°36'3 3.6
2016-Dec-19 19:34N 53°27' E 014°36'7 7.1
2016-Dec-19 18:33N 53°35' E 014°36'8 8.5
2016-Dec-19 17:33N 53°42' E 014°29'  
Track history (hours):
 
Tides and Currents Weather Stations Pressure Air Temp Water Temp Dewpoint Dewpoint Depression Visibility Wind Speed Wind Dir Waves Ship Positions

Andesborg

Last reported at 2016-Dec-29 11:31 UTC. Time now 2017-Jan-21 02:04 UTC.
Position N 43°22' W 001°57'.
Warning: this ship's position is 22 days out of date.

Length 142 m; draft 6.3 m.

Type: Cargo ship. MMSI: 246797000.

Date/timePositionNaut miles runAvg speedWind from/ knotsBaromVisibWave heightAir tempDewpointWater temp
2016-Dec-29 11:31N 43°22' W 001°57'2 1.7
2016-Dec-29 10:33N 43°23' W 001°58'41 9.6
2016-Dec-29 06:19N 43°59' W 002°24'1310.4
2016-Dec-29 05:06N 44°10' W 002°32'610.2
2016-Dec-29 04:32N 44°15' W 002°36'1010.4
2016-Dec-29 03:32N 44°24' W 002°42'1210.4
2016-Dec-29 02:20N 44°35' W 002°50'36 6.9
2016-Dec-28 21:09N 45°01' W 003°26'610.5
2016-Dec-28 20:33N 45°07' W 003°24'1110.0
2016-Dec-28 19:29N 45°17' W 003°22'1010.8
2016-Dec-28 18:33N 45°26' W 003°28'1110.6
2016-Dec-28 17:33N 45°36' W 003°35'4 3.6
2016-Dec-28 16:33N 45°39' W 003°37'1111.1
2016-Dec-28 15:33N 45°49' W 003°45'1111.6
2016-Dec-28 14:33N 45°59' W 003°53'1211.9
2016-Dec-28 13:33N 46°10' W 004°01'1211.9
2016-Dec-28 12:33N 46°20' W 004°09'1211.5
2016-Dec-28 11:33N 46°30' W 004°17'1111.2
2016-Dec-28 10:33N 46°40' W 004°25'1111.2
2016-Dec-28 09:33N 46°50' W 004°32'1111.2
2016-Dec-28 08:33N 46°60' W 004°40'1211.6
2016-Dec-28 07:33N 47°10' W 004°48'1212.0
2016-Dec-28 06:33N 47°21' W 004°56'1512.4
2016-Dec-28 05:20N 47°34' W 005°06'1012.4
2016-Dec-28 04:33N 47°43' W 005°13'3511.5
2016-Dec-28 01:29N 48°14' W 005°37'2211.1
2016-Dec-27 23:32N 48°33' W 005°53'1410.8
2016-Dec-27 22:14N 48°47' W 005°51'912.8
2016-Dec-27 21:33N 48°55' W 005°43'1813.7
2016-Dec-27 20:14N 49°04' W 005°20'913.7
2016-Dec-27 19:33N 49°08' W 005°07'1413.3
2016-Dec-27 18:32N 49°15' W 004°49'1412.6
2016-Dec-27 17:25N 49°21' W 004°30'1411.9
2016-Dec-27 16:16N 49°29' W 004°12'911.8
2016-Dec-27 15:32N 49°34' W 004°01'2512.5
2016-Dec-27 13:31N 49°47' W 003°29'1414.0
2016-Dec-27 12:29N 49°55' W 003°09'1414.7
2016-Dec-27 11:33N 50°01' W 002°51'8912.3
2016-Dec-27 04:20N 50°24' W 000°37'1113.7
2016-Dec-27 03:33N 50°27' W 000°21'1414.1
2016-Dec-27 02:33N 50°31' E 000°01'1514.4
2016-Dec-27 01:33N 50°35' E 000°23'2913.6
2016-Dec-26 23:25N 50°50' E 001°02'1112.3
2016-Dec-26 22:33N 50°56' E 001°15'1212.1
2016-Dec-26 21:33N 51°04' E 001°29'1313.0
2016-Dec-26 20:34N 51°13' E 001°45'1414.2
2016-Dec-26 19:33N 51°25' E 001°56'1414.2
2016-Dec-26 18:33N 51°36' E 002°11'1413.5
2016-Dec-26 17:33N 51°46' E 002°25'45610.3
2016-Dec-24 21:11N 57°49' E 010°26'610.2
2016-Dec-24 20:33N 57°48' E 010°38'8 8.0
2016-Dec-24 19:34N 57°41' E 010°42'3 3.3
2016-Dec-24 18:33N 57°41' E 010°36'0 0.0
2016-Dec-24 17:27N 57°41' E 010°36'0 0.0
2016-Dec-24 16:27N 57°41' E 010°36'0 0.1
2016-Dec-24 15:33N 57°41' E 010°36'0 0.0
2016-Dec-24 14:33N 57°41' E 010°36'0 0.0
2016-Dec-24 13:33N 57°41' E 010°36'0 0.0
2016-Dec-24 12:30N 57°41' E 010°36'0 0.0
2016-Dec-24 11:30N 57°41' E 010°36'0 0.0
2016-Dec-24 10:33N 57°41' E 010°36'7 7.3
2016-Dec-24 09:34N 57°40' E 010°49'1312.5
2016-Dec-24 08:33N 57°36' E 011°12'1313.4
2016-Dec-24 07:34N 57°26' E 011°28'1413.6
2016-Dec-24 06:33N 57°13' E 011°37'6513.0
2016-Dec-24 01:33N 56°13' E 012°19'1414.3
2016-Dec-24 00:33N 56°04' E 012°39'1514.8
2016-Dec-23 23:33N 55°49' E 012°43'1413.5
2016-Dec-23 22:33N 55°36' E 012°42'1313.1
2016-Dec-23 21:33N 55°23' E 012°41'1212.3
2016-Dec-23 20:33N 55°14' E 012°56'105 3.4
2016-Dec-22 13:33N 53°43' E 014°28'1110.4
2016-Dec-22 12:33N 53°34' E 014°36'8 7.9
2016-Dec-22 11:33N 53°26' E 014°36'2 1.5
2016-Dec-22 10:16N 53°24' E 014°36'0 0.0
2016-Dec-22 09:31N 53°24' E 014°36'0 0.0
2016-Dec-22 08:31N 53°24' E 014°36'0 0.0
2016-Dec-22 07:33N 53°24' E 014°36'0 0.0
2016-Dec-22 06:27N 53°24' E 014°36'0 0.0
2016-Dec-22 05:30N 53°24' E 014°36'0 0.0
2016-Dec-22 04:33N 53°24' E 014°36'0 0.0
2016-Dec-22 03:33N 53°24' E 014°36'0 0.0
2016-Dec-22 02:31N 53°24' E 014°36'0 0.0
2016-Dec-22 01:33N 53°24' E 014°36'0 0.0
2016-Dec-22 00:33N 53°24' E 014°36'0 0.0
2016-Dec-21 23:30N 53°24' E 014°36'0 0.0
2016-Dec-21 22:33N 53°24' E 014°36'0 0.0
2016-Dec-21 21:33N 53°24' E 014°36'0 0.0
2016-Dec-21 20:33N 53°24' E 014°36'0 0.0
2016-Dec-21 19:33N 53°24' E 014°36'0 0.0
2016-Dec-21 18:30N 53°24' E 014°36'0 0.0
2016-Dec-21 17:30N 53°24' E 014°36'0 0.0
2016-Dec-21 16:31N 53°24' E 014°36'0 0.0
2016-Dec-21 15:31N 53°24' E 014°36'0 0.0
2016-Dec-21 14:31N 53°24' E 014°36'0 0.0
2016-Dec-21 13:28N 53°24' E 014°36'0 0.0
2016-Dec-21 12:33N 53°24' E 014°36'0 0.0
2016-Dec-21 11:32N 53°24' E 014°36'0 0.0
2016-Dec-21 10:32N 53°24' E 014°36'0 0.0
2016-Dec-21 09:30N 53°24' E 014°36'0 0.0
2016-Dec-21 08:23N 53°24' E 014°36'0 0.0
2016-Dec-21 07:31N 53°24' E 014°36'0 0.0
2016-Dec-21 06:33N 53°24' E 014°36'0 0.0
2016-Dec-21 05:34N 53°24' E 014°36'0 0.0
2016-Dec-21 04:31N 53°24' E 014°36'0 0.0
2016-Dec-21 03:33N 53°24' E 014°36'0 0.0
2016-Dec-21 02:31N 53°24' E 014°36'0 0.0
2016-Dec-21 01:30N 53°24' E 014°36'0 0.0
2016-Dec-21 00:31N 53°24' E 014°36'0 0.0
2016-Dec-20 23:33N 53°24' E 014°36'0 0.0
2016-Dec-20 22:32N 53°24' E 014°36'0 0.0
2016-Dec-20 21:32N 53°24' E 014°36'0 0.0
2016-Dec-20 19:26N 53°24' E 014°36'0 0.0
2016-Dec-20 18:11N 53°24' E 014°36'0 0.0
2016-Dec-20 17:27N 53°24' E 014°36'0 0.0
2016-Dec-20 16:33N 53°24' E 014°36'0 0.0
2016-Dec-20 15:19N 53°24' E 014°36'0 0.0
2016-Dec-20 14:31N 53°24' E 014°36'0 0.0
2016-Dec-20 13:31N 53°24' E 014°36'0 0.0
2016-Dec-20 12:31N 53°24' E 014°36'0 0.0
2016-Dec-20 11:25N 53°24' E 014°36'0 0.0
2016-Dec-20 10:31N 53°24' E 014°36'0 0.0
2016-Dec-20 08:30N 53°24' E 014°36'0 0.0
2016-Dec-20 07:33N 53°24' E 014°36'0 0.0
2016-Dec-20 06:30N 53°24' E 014°36'0 0.0
2016-Dec-20 05:29N 53°24' E 014°36'0 0.0
2016-Dec-20 04:16N 53°24' E 014°36'0 0.0
2016-Dec-20 03:33N 53°24' E 014°36'0 0.0
2016-Dec-20 00:05N 53°24' E 014°36'0 0.0
2016-Dec-19 23:33N 53°24' E 014°36'0 0.0
2016-Dec-19 20:27N 53°24' E 014°36'3 3.6
2016-Dec-19 19:34N 53°27' E 014°36'7 7.1
2016-Dec-19 18:33N 53°35' E 014°36'8 8.5
2016-Dec-19 17:33N 53°42' E 014°29'  

Dump ship's entire track history